sensor_id;sensor_type;location;lat;lon;timestamp;P1;durP1;ratioP1;P2;durP2;ratioP2
5297;SDS011;14738;42.668;23.250;2023-03-18T00:01:34;12.47;;;10.40;;
5297;SDS011;14738;42.668;23.250;2023-03-18T00:04:01;13.80;;;10.17;;
5297;SDS011;14738;42.668;23.250;2023-03-18T00:06:28;11.63;;;9.63;;
5297;SDS011;14738;42.668;23.250;2023-03-18T00:08:54;14.53;;;9.60;;
5297;SDS011;14738;42.668;23.250;2023-03-18T00:11:21;12.47;;;9.60;;
5297;SDS011;14738;42.668;23.250;2023-03-18T00:13:47;10.70;;;9.60;;
5297;SDS011;14738;42.668;23.250;2023-03-18T00:16:13;9.93;;;8.73;;
5297;SDS011;14738;42.668;23.250;2023-03-18T00:18:39;13.00;;;9.90;;
5297;SDS011;14738;42.668;23.250;2023-03-18T00:21:05;13.87;;;10.57;;
5297;SDS011;14738;42.668;23.250;2023-03-18T00:23:31;11.13;;;9.60;;
5297;SDS011;14738;42.668;23.250;2023-03-18T00:25:58;12.57;;;10.70;;
5297;SDS011;14738;42.668;23.250;2023-03-18T00:28:27;11.40;;;9.03;;
5297;SDS011;14738;42.668;23.250;2023-03-18T00:30:54;10.30;;;8.43;;
5297;SDS011;14738;42.668;23.250;2023-03-18T00:33:21;10.20;;;9.17;;
5297;SDS011;14738;42.668;23.250;2023-03-18T00:35:47;11.27;;;9.23;;
5297;SDS011;14738;42.668;23.250;2023-03-18T00:38:13;12.57;;;9.80;;
5297;SDS011;14738;42.668;23.250;2023-03-18T00:40:48;11.20;;;8.70;;
5297;SDS011;14738;42.668;23.250;2023-03-18T00:43:19;12.27;;;9.73;;
5297;SDS011;14738;42.668;23.250;2023-03-18T00:45:47;12.80;;;8.63;;
5297;SDS011;14738;42.668;23.250;2023-03-18T00:48:14;11.53;;;9.57;;
5297;SDS011;14738;42.668;23.250;2023-03-18T00:50:40;9.67;;;8.67;;
5297;SDS011;14738;42.668;23.250;2023-03-18T00:53:08;12.00;;;9.33;;
5297;SDS011;14738;42.668;23.250;2023-03-18T00:55:34;10.60;;;9.40;;
5297;SDS011;14738;42.668;23.250;2023-03-18T00:57:59;12.07;;;9.47;;
5297;SDS011;14738;42.668;23.250;2023-03-18T01:00:25;9.37;;;8.33;;
5297;SDS011;14738;42.668;23.250;2023-03-18T01:02:50;10.63;;;9.47;;
5297;SDS011;14738;42.668;23.250;2023-03-18T01:05:16;13.03;;;10.00;;
5297;SDS011;14738;42.668;23.250;2023-03-18T01:07:42;13.80;;;11.03;;
5297;SDS011;14738;42.668;23.250;2023-03-18T01:10:09;12.40;;;10.47;;
5297;SDS011;14738;42.668;23.250;2023-03-18T01:12:36;15.70;;;11.90;;
5297;SDS011;14738;42.668;23.250;2023-03-18T01:15:02;12.40;;;11.07;;
5297;SDS011;14738;42.668;23.250;2023-03-18T01:17:29;11.80;;;10.33;;
5297;SDS011;14738;42.668;23.250;2023-03-18T01:19:55;12.10;;;10.10;;
5297;SDS011;14738;42.668;23.250;2023-03-18T01:22:21;15.93;;;10.80;;
5297;SDS011;14738;42.668;23.250;2023-03-18T01:24:47;12.60;;;9.47;;
5297;SDS011;14738;42.668;23.250;2023-03-18T01:27:13;11.97;;;10.33;;
5297;SDS011;14738;42.668;23.250;2023-03-18T01:29:38;12.20;;;10.93;;
5297;SDS011;14738;42.668;23.250;2023-03-18T01:32:04;11.90;;;10.30;;
5297;SDS011;14738;42.668;23.250;2023-03-18T01:34:30;12.40;;;10.67;;
5297;SDS011;14738;42.668;23.250;2023-03-18T01:36:55;12.70;;;9.53;;
5297;SDS011;14738;42.668;23.250;2023-03-18T01:39:21;13.20;;;10.43;;
5297;SDS011;14738;42.668;23.250;2023-03-18T01:41:47;13.93;;;10.00;;
5297;SDS011;14738;42.668;23.250;2023-03-18T01:44:14;10.50;;;8.80;;
5297;SDS011;14738;42.668;23.250;2023-03-18T01:46:46;15.00;;;10.43;;
5297;SDS011;14738;42.668;23.250;2023-03-18T01:51:47;13.50;;;9.60;;
5297;SDS011;14738;42.668;23.250;2023-03-18T01:54:16;19.20;;;12.47;;
5297;SDS011;14738;42.668;23.250;2023-03-18T01:56:43;13.73;;;9.70;;
5297;SDS011;14738;42.668;23.250;2023-03-18T01:59:11;13.23;;;10.40;;
5297;SDS011;14738;42.668;23.250;2023-03-18T02:01:47;15.33;;;10.83;;
5297;SDS011;14738;42.668;23.250;2023-03-18T02:04:17;12.67;;;9.93;;
5297;SDS011;14738;42.668;23.250;2023-03-18T02:06:45;11.83;;;9.57;;
5297;SDS011;14738;42.668;23.250;2023-03-18T02:09:11;10.43;;;8.97;;
5297;SDS011;14738;42.668;23.250;2023-03-18T02:11:38;12.83;;;9.87;;
5297;SDS011;14738;42.668;23.250;2023-03-18T02:14:08;9.73;;;8.23;;
5297;SDS011;14738;42.668;23.250;2023-03-18T02:16:39;10.27;;;9.20;;
5297;SDS011;14738;42.668;23.250;2023-03-18T02:22:14;11.40;;;8.40;;
5297;SDS011;14738;42.668;23.250;2023-03-18T02:27:31;15.20;;;8.80;;
5297;SDS011;14738;42.668;23.250;2023-03-18T02:30:00;13.07;;;8.73;;
5297;SDS011;14738;42.668;23.250;2023-03-18T02:32:31;13.67;;;10.70;;
5297;SDS011;14738;42.668;23.250;2023-03-18T02:34:58;12.63;;;10.03;;
5297;SDS011;14738;42.668;23.250;2023-03-18T02:37:27;13.37;;;10.37;;
5297;SDS011;14738;42.668;23.250;2023-03-18T02:39:52;13.50;;;11.10;;
5297;SDS011;14738;42.668;23.250;2023-03-18T02:42:28;14.00;;;11.13;;
5297;SDS011;14738;42.668;23.250;2023-03-18T02:44:55;16.60;;;13.23;;
5297;SDS011;14738;42.668;23.250;2023-03-18T02:47:21;19.90;;;14.63;;
5297;SDS011;14738;42.668;23.250;2023-03-18T02:49:50;17.50;;;13.97;;
5297;SDS011;14738;42.668;23.250;2023-03-18T02:52:17;20.17;;;15.17;;
5297;SDS011;14738;42.668;23.250;2023-03-18T02:54:42;19.17;;;14.20;;
5297;SDS011;14738;42.668;23.250;2023-03-18T02:57:08;19.30;;;14.23;;
5297;SDS011;14738;42.668;23.250;2023-03-18T02:59:33;21.17;;;15.07;;
5297;SDS011;14738;42.668;23.250;2023-03-18T03:01:59;21.07;;;14.90;;
5297;SDS011;14738;42.668;23.250;2023-03-18T03:04:25;19.20;;;15.23;;
5297;SDS011;14738;42.668;23.250;2023-03-18T03:06:52;20.90;;;16.07;;
5297;SDS011;14738;42.668;23.250;2023-03-18T03:09:18;20.37;;;14.80;;
5297;SDS011;14738;42.668;23.250;2023-03-18T03:11:46;19.97;;;13.97;;
5297;SDS011;14738;42.668;23.250;2023-03-18T03:14:12;20.63;;;15.03;;
5297;SDS011;14738;42.668;23.250;2023-03-18T03:16:39;19.67;;;14.60;;
5297;SDS011;14738;42.668;23.250;2023-03-18T03:19:04;20.07;;;15.50;;
5297;SDS011;14738;42.668;23.250;2023-03-18T03:21:31;18.03;;;14.00;;
5297;SDS011;14738;42.668;23.250;2023-03-18T03:23:57;18.50;;;14.60;;
5297;SDS011;14738;42.668;23.250;2023-03-18T03:26:23;22.10;;;16.23;;
5297;SDS011;14738;42.668;23.250;2023-03-18T03:28:49;23.90;;;17.50;;
5297;SDS011;14738;42.668;23.250;2023-03-18T03:31:15;22.03;;;16.40;;
5297;SDS011;14738;42.668;23.250;2023-03-18T03:33:41;26.73;;;17.30;;
5297;SDS011;14738;42.668;23.250;2023-03-18T03:36:12;24.53;;;17.73;;
5297;SDS011;14738;42.668;23.250;2023-03-18T03:38:39;19.93;;;14.90;;
5297;SDS011;14738;42.668;23.250;2023-03-18T03:41:09;21.50;;;16.40;;
5297;SDS011;14738;42.668;23.250;2023-03-18T03:43:39;28.30;;;18.20;;
5297;SDS011;14738;42.668;23.250;2023-03-18T03:46:05;21.87;;;16.93;;
5297;SDS011;14738;42.668;23.250;2023-03-18T03:48:32;19.30;;;15.40;;
5297;SDS011;14738;42.668;23.250;2023-03-18T03:50:58;18.93;;;15.07;;
5297;SDS011;14738;42.668;23.250;2023-03-18T03:53:23;24.70;;;16.50;;
5297;SDS011;14738;42.668;23.250;2023-03-18T03:55:49;19.13;;;14.97;;
5297;SDS011;14738;42.668;23.250;2023-03-18T03:58:15;18.80;;;14.70;;
5297;SDS011;14738;42.668;23.250;2023-03-18T04:00:40;16.50;;;12.63;;
5297;SDS011;14738;42.668;23.250;2023-03-18T04:03:06;15.27;;;12.50;;
5297;SDS011;14738;42.668;23.250;2023-03-18T04:05:32;17.33;;;12.43;;
5297;SDS011;14738;42.668;23.250;2023-03-18T04:07:57;17.30;;;12.33;;
5297;SDS011;14738;42.668;23.250;2023-03-18T04:10:26;14.53;;;12.37;;
5297;SDS011;14738;42.668;23.250;2023-03-18T04:12:52;14.23;;;11.50;;
5297;SDS011;14738;42.668;23.250;2023-03-18T04:15:18;13.57;;;11.20;;
5297;SDS011;14738;42.668;23.250;2023-03-18T04:17:46;10.90;;;9.27;;
5297;SDS011;14738;42.668;23.250;2023-03-18T04:20:13;10.70;;;9.23;;
5297;SDS011;14738;42.668;23.250;2023-03-18T04:22:39;12.07;;;9.40;;
5297;SDS011;14738;42.668;23.250;2023-03-18T04:25:06;14.40;;;8.90;;
5297;SDS011;14738;42.668;23.250;2023-03-18T04:27:32;12.00;;;10.07;;
5297;SDS011;14738;42.668;23.250;2023-03-18T04:29:58;13.40;;;11.47;;
5297;SDS011;14738;42.668;23.250;2023-03-18T04:32:24;16.30;;;12.43;;
5297;SDS011;14738;42.668;23.250;2023-03-18T04:34:50;15.83;;;10.17;;
5297;SDS011;14738;42.668;23.250;2023-03-18T04:37:15;15.40;;;11.00;;
5297;SDS011;14738;42.668;23.250;2023-03-18T04:39:44;17.90;;;14.03;;
5297;SDS011;14738;42.668;23.250;2023-03-18T04:42:11;27.73;;;20.73;;
5297;SDS011;14738;42.668;23.250;2023-03-18T04:44:36;50.87;;;35.77;;
5297;SDS011;14738;42.668;23.250;2023-03-18T04:47:02;59.03;;;35.87;;
5297;SDS011;14738;42.668;23.250;2023-03-18T04:49:28;36.70;;;25.30;;
5297;SDS011;14738;42.668;23.250;2023-03-18T04:51:53;26.60;;;19.90;;
5297;SDS011;14738;42.668;23.250;2023-03-18T04:54:19;28.47;;;21.63;;
5297;SDS011;14738;42.668;23.250;2023-03-18T04:56:44;24.33;;;19.77;;
5297;SDS011;14738;42.668;23.250;2023-03-18T04:59:10;24.20;;;18.93;;
5297;SDS011;14738;42.668;23.250;2023-03-18T05:01:36;24.33;;;19.07;;
5297;SDS011;14738;42.668;23.250;2023-03-18T05:04:02;23.80;;;18.20;;
5297;SDS011;14738;42.668;23.250;2023-03-18T05:06:28;19.00;;;15.30;;
5297;SDS011;14738;42.668;23.250;2023-03-18T05:08:56;17.70;;;14.30;;
5297;SDS011;14738;42.668;23.250;2023-03-18T05:11:22;15.17;;;13.47;;
5297;SDS011;14738;42.668;23.250;2023-03-18T05:13:48;16.47;;;14.23;;
5297;SDS011;14738;42.668;23.250;2023-03-18T05:16:14;16.50;;;13.87;;
5297;SDS011;14738;42.668;23.250;2023-03-18T05:18:40;18.40;;;15.43;;
5297;SDS011;14738;42.668;23.250;2023-03-18T05:21:06;18.37;;;16.37;;
5297;SDS011;14738;42.668;23.250;2023-03-18T05:23:32;21.80;;;17.37;;
5297;SDS011;14738;42.668;23.250;2023-03-18T05:25:58;34.40;;;22.27;;
5297;SDS011;14738;42.668;23.250;2023-03-18T05:28:24;36.73;;;23.80;;
5297;SDS011;14738;42.668;23.250;2023-03-18T05:30:50;35.90;;;23.83;;
5297;SDS011;14738;42.668;23.250;2023-03-18T05:33:16;31.40;;;22.40;;
5297;SDS011;14738;42.668;23.250;2023-03-18T05:35:42;27.30;;;21.43;;
5297;SDS011;14738;42.668;23.250;2023-03-18T05:38:08;26.80;;;22.10;;
5297;SDS011;14738;42.668;23.250;2023-03-18T05:40:34;27.50;;;21.27;;
5297;SDS011;14738;42.668;23.250;2023-03-18T05:43:00;29.57;;;22.63;;
5297;SDS011;14738;42.668;23.250;2023-03-18T05:45:25;28.30;;;22.07;;
5297;SDS011;14738;42.668;23.250;2023-03-18T05:47:51;31.07;;;22.20;;
5297;SDS011;14738;42.668;23.250;2023-03-18T05:50:39;32.33;;;23.53;;
5297;SDS011;14738;42.668;23.250;2023-03-18T05:53:05;32.57;;;24.60;;
5297;SDS011;14738;42.668;23.250;2023-03-18T05:55:32;29.40;;;23.03;;
5297;SDS011;14738;42.668;23.250;2023-03-18T05:57:58;25.30;;;21.77;;
5297;SDS011;14738;42.668;23.250;2023-03-18T06:00:25;28.50;;;21.63;;
5297;SDS011;14738;42.668;23.250;2023-03-18T06:02:52;29.67;;;24.03;;
5297;SDS011;14738;42.668;23.250;2023-03-18T06:05:19;30.63;;;27.30;;
5297;SDS011;14738;42.668;23.250;2023-03-18T06:07:45;33.20;;;28.20;;
5297;SDS011;14738;42.668;23.250;2023-03-18T06:10:12;37.63;;;30.67;;
5297;SDS011;14738;42.668;23.250;2023-03-18T06:12:38;29.50;;;24.03;;
5297;SDS011;14738;42.668;23.250;2023-03-18T06:15:05;28.13;;;24.30;;
5297;SDS011;14738;42.668;23.250;2023-03-18T06:17:32;36.30;;;29.40;;
5297;SDS011;14738;42.668;23.250;2023-03-18T06:19:58;39.70;;;27.03;;
5297;SDS011;14738;42.668;23.250;2023-03-18T06:22:24;33.40;;;28.17;;
5297;SDS011;14738;42.668;23.250;2023-03-18T06:24:50;30.50;;;26.90;;
5297;SDS011;14738;42.668;23.250;2023-03-18T06:27:16;32.83;;;27.13;;
5297;SDS011;14738;42.668;23.250;2023-03-18T06:29:41;30.40;;;23.37;;
5297;SDS011;14738;42.668;23.250;2023-03-18T06:32:07;30.97;;;24.53;;
5297;SDS011;14738;42.668;23.250;2023-03-18T06:34:34;31.33;;;26.97;;
5297;SDS011;14738;42.668;23.250;2023-03-18T06:37:00;36.50;;;27.50;;
5297;SDS011;14738;42.668;23.250;2023-03-18T06:39:26;33.30;;;27.60;;
5297;SDS011;14738;42.668;23.250;2023-03-18T06:41:55;35.33;;;27.93;;
5297;SDS011;14738;42.668;23.250;2023-03-18T06:44:21;32.90;;;27.43;;
5297;SDS011;14738;42.668;23.250;2023-03-18T06:46:47;31.10;;;27.77;;
5297;SDS011;14738;42.668;23.250;2023-03-18T06:49:12;28.13;;;25.03;;
5297;SDS011;14738;42.668;23.250;2023-03-18T06:51:39;28.80;;;24.70;;
5297;SDS011;14738;42.668;23.250;2023-03-18T06:54:05;27.30;;;24.27;;
5297;SDS011;14738;42.668;23.250;2023-03-18T06:56:31;27.47;;;22.70;;
5297;SDS011;14738;42.668;23.250;2023-03-18T06:59:03;29.23;;;24.03;;
5297;SDS011;14738;42.668;23.250;2023-03-18T07:01:29;31.03;;;22.23;;
5297;SDS011;14738;42.668;23.250;2023-03-18T07:03:57;25.93;;;22.10;;
5297;SDS011;14738;42.668;23.250;2023-03-18T07:06:24;27.10;;;23.03;;
5297;SDS011;14738;42.668;23.250;2023-03-18T07:08:50;22.97;;;20.50;;
5297;SDS011;14738;42.668;23.250;2023-03-18T07:11:17;27.90;;;22.93;;
5297;SDS011;14738;42.668;23.250;2023-03-18T07:13:43;28.77;;;21.57;;
5297;SDS011;14738;42.668;23.250;2023-03-18T07:16:11;27.67;;;21.97;;
5297;SDS011;14738;42.668;23.250;2023-03-18T07:18:37;27.57;;;22.17;;
5297;SDS011;14738;42.668;23.250;2023-03-18T07:21:03;22.53;;;20.13;;
5297;SDS011;14738;42.668;23.250;2023-03-18T07:23:29;30.40;;;23.50;;
5297;SDS011;14738;42.668;23.250;2023-03-18T07:25:55;30.07;;;22.57;;
5297;SDS011;14738;42.668;23.250;2023-03-18T07:28:21;28.20;;;21.93;;
5297;SDS011;14738;42.668;23.250;2023-03-18T07:30:46;28.90;;;22.73;;
5297;SDS011;14738;42.668;23.250;2023-03-18T07:33:12;26.77;;;20.80;;
5297;SDS011;14738;42.668;23.250;2023-03-18T07:35:38;29.50;;;20.97;;
5297;SDS011;14738;42.668;23.250;2023-03-18T07:38:07;29.83;;;22.60;;
5297;SDS011;14738;42.668;23.250;2023-03-18T07:40:34;34.13;;;23.17;;
5297;SDS011;14738;42.668;23.250;2023-03-18T07:43:00;24.50;;;21.23;;
5297;SDS011;14738;42.668;23.250;2023-03-18T07:45:25;27.07;;;22.03;;
5297;SDS011;14738;42.668;23.250;2023-03-18T07:47:52;27.83;;;23.90;;
5297;SDS011;14738;42.668;23.250;2023-03-18T07:50:17;34.40;;;25.60;;
5297;SDS011;14738;42.668;23.250;2023-03-18T07:52:43;28.43;;;21.30;;
5297;SDS011;14738;42.668;23.250;2023-03-18T07:55:09;27.07;;;22.70;;
5297;SDS011;14738;42.668;23.250;2023-03-18T07:57:36;30.00;;;24.67;;
5297;SDS011;14738;42.668;23.250;2023-03-18T08:00:02;32.27;;;24.57;;
5297;SDS011;14738;42.668;23.250;2023-03-18T08:02:29;33.77;;;26.07;;
5297;SDS011;14738;42.668;23.250;2023-03-18T08:04:54;32.13;;;26.37;;
5297;SDS011;14738;42.668;23.250;2023-03-18T08:07:20;30.20;;;24.43;;
5297;SDS011;14738;42.668;23.250;2023-03-18T08:09:47;34.20;;;26.70;;
5297;SDS011;14738;42.668;23.250;2023-03-18T08:12:14;33.40;;;26.20;;
5297;SDS011;14738;42.668;23.250;2023-03-18T08:14:40;33.37;;;27.13;;
5297;SDS011;14738;42.668;23.250;2023-03-18T08:17:06;32.60;;;25.10;;
5297;SDS011;14738;42.668;23.250;2023-03-18T08:19:32;33.27;;;25.60;;
5297;SDS011;14738;42.668;23.250;2023-03-18T08:21:58;35.03;;;25.63;;
5297;SDS011;14738;42.668;23.250;2023-03-18T08:24:24;34.27;;;25.40;;
5297;SDS011;14738;42.668;23.250;2023-03-18T08:26:49;38.40;;;25.80;;
5297;SDS011;14738;42.668;23.250;2023-03-18T08:29:17;36.63;;;25.40;;
5297;SDS011;14738;42.668;23.250;2023-03-18T08:31:50;33.20;;;25.47;;
5297;SDS011;14738;42.668;23.250;2023-03-18T08:34:16;32.30;;;25.60;;
5297;SDS011;14738;42.668;23.250;2023-03-18T08:36:42;32.10;;;25.27;;
5297;SDS011;14738;42.668;23.250;2023-03-18T08:39:07;40.10;;;27.73;;
5297;SDS011;14738;42.668;23.250;2023-03-18T08:41:36;36.10;;;28.93;;
5297;SDS011;14738;42.668;23.250;2023-03-18T08:44:02;37.90;;;28.80;;
5297;SDS011;14738;42.668;23.250;2023-03-18T08:46:30;38.87;;;28.90;;
5297;SDS011;14738;42.668;23.250;2023-03-18T08:48:56;37.53;;;28.33;;
5297;SDS011;14738;42.668;23.250;2023-03-18T08:51:21;29.20;;;23.40;;
5297;SDS011;14738;42.668;23.250;2023-03-18T08:53:47;33.00;;;24.30;;
5297;SDS011;14738;42.668;23.250;2023-03-18T08:56:13;35.70;;;23.97;;
5297;SDS011;14738;42.668;23.250;2023-03-18T08:58:39;32.87;;;24.63;;
5297;SDS011;14738;42.668;23.250;2023-03-18T09:01:05;28.30;;;22.97;;
5297;SDS011;14738;42.668;23.250;2023-03-18T09:03:32;26.73;;;22.50;;
5297;SDS011;14738;42.668;23.250;2023-03-18T09:05:58;31.40;;;23.07;;
5297;SDS011;14738;42.668;23.250;2023-03-18T09:08:24;30.00;;;24.70;;
5297;SDS011;14738;42.668;23.250;2023-03-18T09:10:53;30.40;;;24.10;;
5297;SDS011;14738;42.668;23.250;2023-03-18T09:13:20;29.63;;;23.60;;
5297;SDS011;14738;42.668;23.250;2023-03-18T09:15:46;27.67;;;23.20;;
5297;SDS011;14738;42.668;23.250;2023-03-18T09:18:12;27.37;;;23.23;;
5297;SDS011;14738;42.668;23.250;2023-03-18T09:20:39;27.73;;;22.50;;
5297;SDS011;14738;42.668;23.250;2023-03-18T09:23:05;26.27;;;19.83;;
5297;SDS011;14738;42.668;23.250;2023-03-18T09:25:32;25.90;;;18.33;;
5297;SDS011;14738;42.668;23.250;2023-03-18T09:27:57;31.90;;;19.23;;
5297;SDS011;14738;42.668;23.250;2023-03-18T09:30:24;18.80;;;15.83;;
5297;SDS011;14738;42.668;23.250;2023-03-18T09:32:50;20.23;;;15.60;;
5297;SDS011;14738;42.668;23.250;2023-03-18T09:35:15;19.40;;;16.40;;
5297;SDS011;14738;42.668;23.250;2023-03-18T09:37:41;19.30;;;15.00;;
5297;SDS011;14738;42.668;23.250;2023-03-18T09:40:10;14.63;;;10.20;;
5297;SDS011;14738;42.668;23.250;2023-03-18T09:45:32;15.03;;;12.00;;
5297;SDS011;14738;42.668;23.250;2023-03-18T09:48:07;10.87;;;9.73;;
5297;SDS011;14738;42.668;23.250;2023-03-18T09:56:20;13.47;;;7.50;;
5297;SDS011;14738;42.668;23.250;2023-03-18T10:01:32;9.90;;;8.03;;
5297;SDS011;14738;42.668;23.250;2023-03-18T10:06:25;7.90;;;7.10;;
5297;SDS011;14738;42.668;23.250;2023-03-18T10:11:40;13.37;;;8.60;;
5297;SDS011;14738;42.668;23.250;2023-03-18T10:14:32;9.77;;;8.47;;
5297;SDS011;14738;42.668;23.250;2023-03-18T10:17:15;13.20;;;7.67;;
5297;SDS011;14738;42.668;23.250;2023-03-18T10:19:52;8.57;;;7.77;;
5297;SDS011;14738;42.668;23.250;2023-03-18T10:25:15;9.07;;;6.67;;
5297;SDS011;14738;42.668;23.250;2023-03-18T10:27:51;8.30;;;6.93;;
5297;SDS011;14738;42.668;23.250;2023-03-18T10:35:50;6.33;;;5.77;;
5297;SDS011;14738;42.668;23.250;2023-03-18T10:38:18;6.40;;;5.80;;
5297;SDS011;14738;42.668;23.250;2023-03-18T10:40:44;8.50;;;6.63;;
5297;SDS011;14738;42.668;23.250;2023-03-18T10:43:20;9.13;;;7.10;;
5297;SDS011;14738;42.668;23.250;2023-03-18T10:45:50;7.57;;;6.40;;
5297;SDS011;14738;42.668;23.250;2023-03-18T10:56:10;6.13;;;5.63;;
5297;SDS011;14738;42.668;23.250;2023-03-18T10:58:38;4.60;;;4.27;;
5297;SDS011;14738;42.668;23.250;2023-03-18T11:01:06;4.77;;;4.37;;
5297;SDS011;14738;42.668;23.250;2023-03-18T11:03:40;4.60;;;4.20;;
5297;SDS011;14738;42.668;23.250;2023-03-18T11:06:37;5.83;;;5.17;;
5297;SDS011;14738;42.668;23.250;2023-03-18T11:09:05;3.60;;;3.33;;
5297;SDS011;14738;42.668;23.250;2023-03-18T11:11:41;5.20;;;4.70;;
5297;SDS011;14738;42.668;23.250;2023-03-18T11:14:15;4.80;;;4.40;;
5297;SDS011;14738;42.668;23.250;2023-03-18T11:19:36;5.27;;;4.80;;
5297;SDS011;14738;42.668;23.250;2023-03-18T11:22:18;5.20;;;4.80;;
5297;SDS011;14738;42.668;23.250;2023-03-18T11:24:59;5.40;;;5.00;;
5297;SDS011;14738;42.668;23.250;2023-03-18T11:27:27;6.90;;;4.77;;
5297;SDS011;14738;42.668;23.250;2023-03-18T11:29:59;4.53;;;4.23;;
5297;SDS011;14738;42.668;23.250;2023-03-18T11:32:33;4.63;;;4.23;;
5297;SDS011;14738;42.668;23.250;2023-03-18T11:35:01;4.97;;;4.57;;
5297;SDS011;14738;42.668;23.250;2023-03-18T11:40:05;9.47;;;6.73;;
5297;SDS011;14738;42.668;23.250;2023-03-18T11:42:53;5.87;;;5.27;;
5297;SDS011;14738;42.668;23.250;2023-03-18T11:48:04;4.63;;;4.13;;
5297;SDS011;14738;42.668;23.250;2023-03-18T11:50:37;4.83;;;4.40;;
5297;SDS011;14738;42.668;23.250;2023-03-18T11:58:21;4.70;;;4.30;;
5297;SDS011;14738;42.668;23.250;2023-03-18T12:01:00;4.60;;;4.30;;
5297;SDS011;14738;42.668;23.250;2023-03-18T12:06:26;4.17;;;3.87;;
5297;SDS011;14738;42.668;23.250;2023-03-18T12:17:43;3.80;;;3.60;;
5297;SDS011;14738;42.668;23.250;2023-03-18T12:20:36;4.30;;;3.90;;
5297;SDS011;14738;42.668;23.250;2023-03-18T12:26:39;4.70;;;4.30;;
5297;SDS011;14738;42.668;23.250;2023-03-18T12:35:42;4.20;;;3.90;;
5297;SDS011;14738;42.668;23.250;2023-03-18T12:41:21;4.33;;;3.93;;
5297;SDS011;14738;42.668;23.250;2023-03-18T12:49:40;3.43;;;3.23;;
5297;SDS011;14738;42.668;23.250;2023-03-18T12:54:50;3.63;;;3.43;;
5297;SDS011;14738;42.668;23.250;2023-03-18T13:00:17;6.30;;;5.50;;
5297;SDS011;14738;42.668;23.250;2023-03-18T13:02:49;4.33;;;3.90;;
5297;SDS011;14738;42.668;23.250;2023-03-18T13:08:35;4.10;;;3.80;;
5297;SDS011;14738;42.668;23.250;2023-03-18T13:11:35;3.00;;;2.80;;
5297;SDS011;14738;42.668;23.250;2023-03-18T13:14:14;4.30;;;3.90;;
5297;SDS011;14738;42.668;23.250;2023-03-18T13:16:46;3.87;;;3.40;;
5297;SDS011;14738;42.668;23.250;2023-03-18T13:19:14;4.90;;;4.43;;
5297;SDS011;14738;42.668;23.250;2023-03-18T13:21:41;5.40;;;4.13;;
5297;SDS011;14738;42.668;23.250;2023-03-18T13:24:18;4.43;;;4.07;;
5297;SDS011;14738;42.668;23.250;2023-03-18T13:44:03;5.40;;;4.20;;
5297;SDS011;14738;42.668;23.250;2023-03-18T13:46:35;4.27;;;3.87;;
5297;SDS011;14738;42.668;23.250;2023-03-18T13:49:01;3.80;;;3.40;;
5297;SDS011;14738;42.668;23.250;2023-03-18T13:54:14;3.80;;;3.60;;
5297;SDS011;14738;42.668;23.250;2023-03-18T14:05:00;3.73;;;3.53;;
5297;SDS011;14738;42.668;23.250;2023-03-18T14:07:26;4.17;;;3.70;;
5297;SDS011;14738;42.668;23.250;2023-03-18T14:15:00;4.10;;;3.70;;
5297;SDS011;14738;42.668;23.250;2023-03-18T14:22:41;5.90;;;4.43;;
5297;SDS011;14738;42.668;23.250;2023-03-18T14:30:47;5.50;;;3.67;;
5297;SDS011;14738;42.668;23.250;2023-03-18T14:38:21;4.40;;;3.23;;
5297;SDS011;14738;42.668;23.250;2023-03-18T14:40:53;3.83;;;3.40;;
5297;SDS011;14738;42.668;23.250;2023-03-18T14:45:51;4.53;;;3.73;;
5297;SDS011;14738;42.668;23.250;2023-03-18T14:48:28;4.27;;;3.73;;
5297;SDS011;14738;42.668;23.250;2023-03-18T14:50:57;4.77;;;4.33;;
5297;SDS011;14738;42.668;23.250;2023-03-18T14:56:20;3.93;;;3.63;;
5297;SDS011;14738;42.668;23.250;2023-03-18T14:58:50;6.23;;;4.10;;
5297;SDS011;14738;42.668;23.250;2023-03-18T15:01:36;3.70;;;3.50;;
5297;SDS011;14738;42.668;23.250;2023-03-18T15:04:04;3.60;;;3.40;;
5297;SDS011;14738;42.668;23.250;2023-03-18T15:06:38;6.60;;;3.60;;
5297;SDS011;14738;42.668;23.250;2023-03-18T15:09:05;2.77;;;2.63;;
5297;SDS011;14738;42.668;23.250;2023-03-18T15:11:38;3.57;;;3.37;;
5297;SDS011;14738;42.668;23.250;2023-03-18T15:16:59;3.70;;;3.47;;
5297;SDS011;14738;42.668;23.250;2023-03-18T15:19:28;5.43;;;3.40;;
5297;SDS011;14738;42.668;23.250;2023-03-18T15:21:55;3.77;;;3.43;;
5297;SDS011;14738;42.668;23.250;2023-03-18T15:24:25;4.10;;;3.60;;
5297;SDS011;14738;42.668;23.250;2023-03-18T15:26:58;4.17;;;3.43;;
5297;SDS011;14738;42.668;23.250;2023-03-18T15:29:25;3.90;;;3.60;;
5297;SDS011;14738;42.668;23.250;2023-03-18T15:31:52;5.63;;;4.77;;
5297;SDS011;14738;42.668;23.250;2023-03-18T15:34:30;5.77;;;5.17;;
5297;SDS011;14738;42.668;23.250;2023-03-18T15:36:58;4.43;;;4.13;;
5297;SDS011;14738;42.668;23.250;2023-03-18T15:39:35;5.60;;;3.57;;
5297;SDS011;14738;42.668;23.250;2023-03-18T15:42:03;6.93;;;4.67;;
5297;SDS011;14738;42.668;23.250;2023-03-18T15:44:39;4.50;;;4.10;;
5297;SDS011;14738;42.668;23.250;2023-03-18T15:47:26;4.33;;;3.80;;
5297;SDS011;14738;42.668;23.250;2023-03-18T15:52:25;6.17;;;4.83;;
5297;SDS011;14738;42.668;23.250;2023-03-18T15:54:51;4.40;;;4.00;;
5297;SDS011;14738;42.668;23.250;2023-03-18T15:57:22;5.30;;;3.90;;
5297;SDS011;14738;42.668;23.250;2023-03-18T15:59:54;3.77;;;3.47;;
5297;SDS011;14738;42.668;23.250;2023-03-18T16:02:19;3.73;;;3.40;;
5297;SDS011;14738;42.668;23.250;2023-03-18T16:04:46;4.93;;;4.43;;
5297;SDS011;14738;42.668;23.250;2023-03-18T16:07:16;6.43;;;5.73;;
5297;SDS011;14738;42.668;23.250;2023-03-18T16:09:43;5.00;;;4.50;;
5297;SDS011;14738;42.668;23.250;2023-03-18T16:12:14;9.13;;;6.20;;
5297;SDS011;14738;42.668;23.250;2023-03-18T16:14:41;5.10;;;4.70;;
5297;SDS011;14738;42.668;23.250;2023-03-18T16:17:11;11.07;;;8.30;;
5297;SDS011;14738;42.668;23.250;2023-03-18T16:19:37;12.37;;;9.03;;
5297;SDS011;14738;42.668;23.250;2023-03-18T16:22:03;17.00;;;12.20;;
5297;SDS011;14738;42.668;23.250;2023-03-18T16:24:28;4.70;;;4.00;;
5297;SDS011;14738;42.668;23.250;2023-03-18T16:26:54;6.57;;;5.97;;
5297;SDS011;14738;42.668;23.250;2023-03-18T16:29:31;7.50;;;6.17;;
5297;SDS011;14738;42.668;23.250;2023-03-18T16:32:00;4.20;;;3.90;;
5297;SDS011;14738;42.668;23.250;2023-03-18T16:34:26;5.03;;;4.70;;
5297;SDS011;14738;42.668;23.250;2023-03-18T16:36:52;8.90;;;8.10;;
5297;SDS011;14738;42.668;23.250;2023-03-18T16:39:19;4.27;;;3.97;;
5297;SDS011;14738;42.668;23.250;2023-03-18T16:41:48;5.60;;;4.23;;
5297;SDS011;14738;42.668;23.250;2023-03-18T16:44:17;5.30;;;4.20;;
5297;SDS011;14738;42.668;23.250;2023-03-18T16:46:45;7.17;;;4.27;;
5297;SDS011;14738;42.668;23.250;2023-03-18T16:49:24;4.03;;;3.73;;
5297;SDS011;14738;42.668;23.250;2023-03-18T16:51:53;4.50;;;4.10;;
5297;SDS011;14738;42.668;23.250;2023-03-18T16:54:19;5.73;;;4.83;;
5297;SDS011;14738;42.668;23.250;2023-03-18T16:56:47;5.77;;;4.27;;
5297;SDS011;14738;42.668;23.250;2023-03-18T16:59:16;7.97;;;4.50;;
5297;SDS011;14738;42.668;23.250;2023-03-18T17:01:42;7.23;;;4.47;;
5297;SDS011;14738;42.668;23.250;2023-03-18T17:06:50;5.50;;;5.00;;
5297;SDS011;14738;42.668;23.250;2023-03-18T17:09:16;7.63;;;5.20;;
5297;SDS011;14738;42.668;23.250;2023-03-18T17:11:42;7.60;;;5.40;;
5297;SDS011;14738;42.668;23.250;2023-03-18T17:14:54;5.70;;;5.10;;